sensor_id;sensor_type;location;lat;lon;timestamp;temperature;humidity
43561;DHT22;32305;46.410;17.394;2023-06-05T00:02:23;25.00;47.00
43561;DHT22;32305;46.410;17.394;2023-06-05T00:04:51;25.00;47.00
43561;DHT22;32305;46.410;17.394;2023-06-05T00:07:19;25.00;47.00
43561;DHT22;32305;46.410;17.394;2023-06-05T00:09:46;25.00;47.00
43561;DHT22;32305;46.410;17.394;2023-06-05T00:12:13;25.00;47.00
43561;DHT22;32305;46.410;17.394;2023-06-05T00:14:43;25.00;47.00
43561;DHT22;32305;46.410;17.394;2023-06-05T00:17:10;25.00;47.00
43561;DHT22;32305;46.410;17.394;2023-06-05T00:19:37;25.00;47.00
43561;DHT22;32305;46.410;17.394;2023-06-05T00:22:04;25.00;47.10
43561;DHT22;32305;46.410;17.394;2023-06-05T00:24:31;25.00;47.10
43561;DHT22;32305;46.410;17.394;2023-06-05T00:26:58;25.00;47.10
43561;DHT22;32305;46.410;17.394;2023-06-05T00:29:26;25.00;47.10
43561;DHT22;32305;46.410;17.394;2023-06-05T00:31:53;25.00;47.10
43561;DHT22;32305;46.410;17.394;2023-06-05T00:34:20;25.00;47.10
43561;DHT22;32305;46.410;17.394;2023-06-05T00:36:47;25.00;47.10
43561;DHT22;32305;46.410;17.394;2023-06-05T00:39:18;25.00;47.20
43561;DHT22;32305;46.410;17.394;2023-06-05T00:41:46;25.00;47.10
43561;DHT22;32305;46.410;17.394;2023-06-05T00:44:13;24.90;47.10
43561;DHT22;32305;46.410;17.394;2023-06-05T00:46:41;25.00;47.20
43561;DHT22;32305;46.410;17.394;2023-06-05T00:49:08;25.00;47.20
43561;DHT22;32305;46.410;17.394;2023-06-05T00:51:36;25.00;47.10
43561;DHT22;32305;46.410;17.394;2023-06-05T00:54:04;25.00;47.10
43561;DHT22;32305;46.410;17.394;2023-06-05T00:56:32;25.00;47.20
43561;DHT22;32305;46.410;17.394;2023-06-05T00:59:02;25.00;47.10
43561;DHT22;32305;46.410;17.394;2023-06-05T01:01:29;25.00;47.10
43561;DHT22;32305;46.410;17.394;2023-06-05T01:03:57;25.00;47.10
43561;DHT22;32305;46.410;17.394;2023-06-05T01:06:28;25.00;47.10
43561;DHT22;32305;46.410;17.394;2023-06-05T01:08:57;25.00;47.20
43561;DHT22;32305;46.410;17.394;2023-06-05T01:12:03;25.00;47.10
43561;DHT22;32305;46.410;17.394;2023-06-05T01:14:35;25.00;47.10
43561;DHT22;32305;46.410;17.394;2023-06-05T01:17:05;25.00;47.20
43561;DHT22;32305;46.410;17.394;2023-06-05T01:19:35;25.00;47.20
43561;DHT22;32305;46.410;17.394;2023-06-05T01:22:03;25.00;47.20
43561;DHT22;32305;46.410;17.394;2023-06-05T01:24:30;25.00;47.20
43561;DHT22;32305;46.410;17.394;2023-06-05T01:27:15;25.00;47.20
43561;DHT22;32305;46.410;17.394;2023-06-05T01:30:10;25.00;47.20
43561;DHT22;32305;46.410;17.394;2023-06-05T01:32:53;25.00;47.30
43561;DHT22;32305;46.410;17.394;2023-06-05T01:35:23;25.00;47.30
43561;DHT22;32305;46.410;17.394;2023-06-05T01:37:58;25.00;47.30
43561;DHT22;32305;46.410;17.394;2023-06-05T01:40:26;25.00;47.30
43561;DHT22;32305;46.410;17.394;2023-06-05T01:42:54;25.00;47.30
43561;DHT22;32305;46.410;17.394;2023-06-05T01:45:22;24.90;47.30
43561;DHT22;32305;46.410;17.394;2023-06-05T01:47:50;25.00;47.40
43561;DHT22;32305;46.410;17.394;2023-06-05T01:50:18;25.00;47.40
43561;DHT22;32305;46.410;17.394;2023-06-05T01:52:45;24.90;47.40
43561;DHT22;32305;46.410;17.394;2023-06-05T01:55:19;24.90;47.40
43561;DHT22;32305;46.410;17.394;2023-06-05T01:57:51;24.90;47.40
43561;DHT22;32305;46.410;17.394;2023-06-05T02:00:18;24.90;47.40
43561;DHT22;32305;46.410;17.394;2023-06-05T02:02:47;24.90;47.40
43561;DHT22;32305;46.410;17.394;2023-06-05T02:05:16;24.90;47.40
43561;DHT22;32305;46.410;17.394;2023-06-05T02:07:48;24.90;47.40
43561;DHT22;32305;46.410;17.394;2023-06-05T02:10:16;24.90;47.40
43561;DHT22;32305;46.410;17.394;2023-06-05T02:12:46;24.90;47.40
43561;DHT22;32305;46.410;17.394;2023-06-05T02:15:14;24.90;47.40
43561;DHT22;32305;46.410;17.394;2023-06-05T02:17:43;24.90;47.40
43561;DHT22;32305;46.410;17.394;2023-06-05T02:20:19;24.90;47.50
43561;DHT22;32305;46.410;17.394;2023-06-05T02:22:46;24.90;47.50
43561;DHT22;32305;46.410;17.394;2023-06-05T02:25:17;24.90;47.50
43561;DHT22;32305;46.410;17.394;2023-06-05T02:27:44;24.90;47.50
43561;DHT22;32305;46.410;17.394;2023-06-05T02:30:12;24.90;47.50
43561;DHT22;32305;46.410;17.394;2023-06-05T02:32:39;24.90;47.60
43561;DHT22;32305;46.410;17.394;2023-06-05T02:35:11;24.90;47.50
43561;DHT22;32305;46.410;17.394;2023-06-05T02:37:39;24.90;47.60
43561;DHT22;32305;46.410;17.394;2023-06-05T02:40:11;24.90;47.60
43561;DHT22;32305;46.410;17.394;2023-06-05T02:42:39;24.90;47.60
43561;DHT22;32305;46.410;17.394;2023-06-05T02:45:08;24.90;47.60
43561;DHT22;32305;46.410;17.394;2023-06-05T02:47:35;24.90;47.60
43561;DHT22;32305;46.410;17.394;2023-06-05T02:50:03;24.90;47.60
43561;DHT22;32305;46.410;17.394;2023-06-05T02:52:30;24.90;47.60
43561;DHT22;32305;46.410;17.394;2023-06-05T02:55:02;24.90;47.60
43561;DHT22;32305;46.410;17.394;2023-06-05T02:57:30;24.90;47.60
43561;DHT22;32305;46.410;17.394;2023-06-05T02:59:57;24.90;47.60
43561;DHT22;32305;46.410;17.394;2023-06-05T03:02:25;24.90;47.60
43561;DHT22;32305;46.410;17.394;2023-06-05T03:04:54;24.90;47.60
43561;DHT22;32305;46.410;17.394;2023-06-05T03:07:22;24.90;47.60
43561;DHT22;32305;46.410;17.394;2023-06-05T03:09:49;24.90;47.60
43561;DHT22;32305;46.410;17.394;2023-06-05T03:12:17;24.90;47.60
43561;DHT22;32305;46.410;17.394;2023-06-05T03:14:44;24.90;47.60
43561;DHT22;32305;46.410;17.394;2023-06-05T03:17:11;24.90;47.60
43561;DHT22;32305;46.410;17.394;2023-06-05T03:19:39;25.00;47.60
43561;DHT22;32305;46.410;17.394;2023-06-05T03:22:06;24.90;47.60
43561;DHT22;32305;46.410;17.394;2023-06-05T03:24:34;24.90;47.60
43561;DHT22;32305;46.410;17.394;2023-06-05T03:27:04;24.90;47.60
43561;DHT22;32305;46.410;17.394;2023-06-05T03:29:32;24.90;47.60
43561;DHT22;32305;46.410;17.394;2023-06-05T03:31:59;25.00;47.70
43561;DHT22;32305;46.410;17.394;2023-06-05T03:34:26;25.00;47.60
43561;DHT22;32305;46.410;17.394;2023-06-05T03:36:53;24.90;47.60
43561;DHT22;32305;46.410;17.394;2023-06-05T03:39:21;25.00;47.60
43561;DHT22;32305;46.410;17.394;2023-06-05T03:41:48;25.00;47.60
43561;DHT22;32305;46.410;17.394;2023-06-05T03:44:15;25.00;47.60
43561;DHT22;32305;46.410;17.394;2023-06-05T03:46:42;25.00;47.60
43561;DHT22;32305;46.410;17.394;2023-06-05T03:49:11;25.00;47.60
43561;DHT22;32305;46.410;17.394;2023-06-05T03:51:39;25.00;47.60
43561;DHT22;32305;46.410;17.394;2023-06-05T03:54:06;25.00;47.60
43561;DHT22;32305;46.410;17.394;2023-06-05T03:56:35;25.00;47.60
43561;DHT22;32305;46.410;17.394;2023-06-05T03:59:05;25.00;47.60
43561;DHT22;32305;46.410;17.394;2023-06-05T04:01:36;25.00;47.50
43561;DHT22;32305;46.410;17.394;2023-06-05T04:04:04;25.00;47.50
43561;DHT22;32305;46.410;17.394;2023-06-05T04:06:35;25.00;47.50
43561;DHT22;32305;46.410;17.394;2023-06-05T04:09:03;25.00;47.50
43561;DHT22;32305;46.410;17.394;2023-06-05T04:11:41;25.10;47.50
43561;DHT22;32305;46.410;17.394;2023-06-05T04:14:10;25.10;47.50
43561;DHT22;32305;46.410;17.394;2023-06-05T04:16:38;25.10;47.50
43561;DHT22;32305;46.410;17.394;2023-06-05T04:19:06;25.10;47.50
43561;DHT22;32305;46.410;17.394;2023-06-05T04:21:33;25.10;47.40
43561;DHT22;32305;46.410;17.394;2023-06-05T04:24:04;25.10;47.40
43561;DHT22;32305;46.410;17.394;2023-06-05T04:26:34;25.10;47.30
43561;DHT22;32305;46.410;17.394;2023-06-05T04:29:03;25.10;47.30
43561;DHT22;32305;46.410;17.394;2023-06-05T04:31:36;25.20;47.30
43561;DHT22;32305;46.410;17.394;2023-06-05T04:34:08;25.20;47.30
43561;DHT22;32305;46.410;17.394;2023-06-05T04:36:35;25.20;47.30
43561;DHT22;32305;46.410;17.394;2023-06-05T04:39:04;25.10;47.30
43561;DHT22;32305;46.410;17.394;2023-06-05T04:41:31;25.00;48.00
43561;DHT22;32305;46.410;17.394;2023-06-05T04:43:59;24.90;47.70
43561;DHT22;32305;46.410;17.394;2023-06-05T04:46:26;24.70;48.10
43561;DHT22;32305;46.410;17.394;2023-06-05T04:48:54;24.50;48.70
43561;DHT22;32305;46.410;17.394;2023-06-05T04:51:25;24.20;49.30
43561;DHT22;32305;46.410;17.394;2023-06-05T04:53:52;23.80;49.80
43561;DHT22;32305;46.410;17.394;2023-06-05T04:56:20;23.50;49.90
43561;DHT22;32305;46.410;17.394;2023-06-05T04:58:48;23.20;50.20
43561;DHT22;32305;46.410;17.394;2023-06-05T05:01:17;22.80;50.40
43561;DHT22;32305;46.410;17.394;2023-06-05T05:03:46;22.50;51.40
43561;DHT22;32305;46.410;17.394;2023-06-05T05:06:15;22.20;52.40
43561;DHT22;32305;46.410;17.394;2023-06-05T05:08:44;22.00;52.50
43561;DHT22;32305;46.410;17.394;2023-06-05T05:11:13;21.80;52.30
43561;DHT22;32305;46.410;17.394;2023-06-05T05:13:41;21.60;53.40
43561;DHT22;32305;46.410;17.394;2023-06-05T05:16:09;21.50;54.00
43561;DHT22;32305;46.410;17.394;2023-06-05T05:18:40;21.40;53.80
43561;DHT22;32305;46.410;17.394;2023-06-05T05:21:07;21.30;54.20
43561;DHT22;32305;46.410;17.394;2023-06-05T05:23:35;21.20;54.90
43561;DHT22;32305;46.410;17.394;2023-06-05T05:26:02;21.10;54.40
43561;DHT22;32305;46.410;17.394;2023-06-05T05:28:30;21.00;54.10
43561;DHT22;32305;46.410;17.394;2023-06-05T05:30:58;20.80;55.40
43561;DHT22;32305;46.410;17.394;2023-06-05T05:33:25;20.80;55.40
43561;DHT22;32305;46.410;17.394;2023-06-05T05:35:52;20.70;54.80
43561;DHT22;32305;46.410;17.394;2023-06-05T05:38:20;20.60;55.30
43561;DHT22;32305;46.410;17.394;2023-06-05T05:40:48;20.60;55.90
43561;DHT22;32305;46.410;17.394;2023-06-05T05:43:19;20.50;55.70
43561;DHT22;32305;46.410;17.394;2023-06-05T05:45:46;20.40;55.30
43561;DHT22;32305;46.410;17.394;2023-06-05T05:48:14;20.40;56.10
43561;DHT22;32305;46.410;17.394;2023-06-05T05:50:41;20.30;55.80
43561;DHT22;32305;46.410;17.394;2023-06-05T05:53:11;20.20;55.50
43561;DHT22;32305;46.410;17.394;2023-06-05T05:55:41;20.10;56.40
43561;DHT22;32305;46.410;17.394;2023-06-05T05:58:10;20.20;57.50
43561;DHT22;32305;46.410;17.394;2023-06-05T06:00:38;20.10;55.70
43561;DHT22;32305;46.410;17.394;2023-06-05T06:03:05;20.10;55.60
43561;DHT22;32305;46.410;17.394;2023-06-05T06:05:34;20.10;57.00
43561;DHT22;32305;46.410;17.394;2023-06-05T06:08:02;20.00;57.10
43561;DHT22;32305;46.410;17.394;2023-06-05T06:10:30;20.00;57.10
43561;DHT22;32305;46.410;17.394;2023-06-05T06:12:59;20.00;56.10
43561;DHT22;32305;46.410;17.394;2023-06-05T06:15:27;20.00;57.60
43561;DHT22;32305;46.410;17.394;2023-06-05T06:17:54;20.00;57.90
43561;DHT22;32305;46.410;17.394;2023-06-05T06:20:22;20.00;57.80
43561;DHT22;32305;46.410;17.394;2023-06-05T06:22:50;20.00;56.90
43561;DHT22;32305;46.410;17.394;2023-06-05T06:25:20;19.90;57.80
43561;DHT22;32305;46.410;17.394;2023-06-05T06:27:48;20.00;57.90
43561;DHT22;32305;46.410;17.394;2023-06-05T06:30:19;20.00;58.10
43561;DHT22;32305;46.410;17.394;2023-06-05T06:32:47;19.90;57.30
43561;DHT22;32305;46.410;17.394;2023-06-05T06:35:15;19.90;57.20
43561;DHT22;32305;46.410;17.394;2023-06-05T06:37:42;19.90;57.70
43561;DHT22;32305;46.410;17.394;2023-06-05T06:40:10;20.00;57.70
43561;DHT22;32305;46.410;17.394;2023-06-05T06:42:38;20.00;57.50
43561;DHT22;32305;46.410;17.394;2023-06-05T06:45:05;20.00;56.70
43561;DHT22;32305;46.410;17.394;2023-06-05T06:47:34;19.90;56.30
43561;DHT22;32305;46.410;17.394;2023-06-05T06:50:01;19.90;57.30
43561;DHT22;32305;46.410;17.394;2023-06-05T06:52:30;19.80;57.60
43561;DHT22;32305;46.410;17.394;2023-06-05T06:54:58;19.80;58.00
43561;DHT22;32305;46.410;17.394;2023-06-05T06:57:25;19.70;57.40
43561;DHT22;32305;46.410;17.394;2023-06-05T06:59:53;19.60;57.40
43561;DHT22;32305;46.410;17.394;2023-06-05T07:02:22;19.60;58.10
43561;DHT22;32305;46.410;17.394;2023-06-05T07:04:56;19.60;58.80
43561;DHT22;32305;46.410;17.394;2023-06-05T07:07:24;19.60;58.50
43561;DHT22;32305;46.410;17.394;2023-06-05T07:09:51;19.50;58.70
43561;DHT22;32305;46.410;17.394;2023-06-05T07:12:19;19.40;58.70
43561;DHT22;32305;46.410;17.394;2023-06-05T07:14:47;19.40;59.00
43561;DHT22;32305;46.410;17.394;2023-06-05T07:17:15;19.50;59.20
43561;DHT22;32305;46.410;17.394;2023-06-05T07:19:42;19.50;58.60
43561;DHT22;32305;46.410;17.394;2023-06-05T07:22:13;19.50;58.90
43561;DHT22;32305;46.410;17.394;2023-06-05T07:24:40;19.50;59.30
43561;DHT22;32305;46.410;17.394;2023-06-05T07:27:08;19.50;58.60
43561;DHT22;32305;46.410;17.394;2023-06-05T07:29:35;19.60;58.80
43561;DHT22;32305;46.410;17.394;2023-06-05T07:32:03;19.50;59.10
43561;DHT22;32305;46.410;17.394;2023-06-05T07:34:34;19.60;57.70
43561;DHT22;32305;46.410;17.394;2023-06-05T07:37:02;19.50;58.40
43561;DHT22;32305;46.410;17.394;2023-06-05T07:39:29;19.50;58.90
43561;DHT22;32305;46.410;17.394;2023-06-05T07:41:56;19.50;58.70
43561;DHT22;32305;46.410;17.394;2023-06-05T07:44:25;19.50;58.40
43561;DHT22;32305;46.410;17.394;2023-06-05T07:46:52;19.50;59.00
43561;DHT22;32305;46.410;17.394;2023-06-05T07:49:19;19.50;58.50
43561;DHT22;32305;46.410;17.394;2023-06-05T07:51:47;19.40;58.60
43561;DHT22;32305;46.410;17.394;2023-06-05T07:54:15;19.40;58.80
43561;DHT22;32305;46.410;17.394;2023-06-05T07:56:43;19.50;59.00
43561;DHT22;32305;46.410;17.394;2023-06-05T07:59:11;19.40;58.10
43561;DHT22;32305;46.410;17.394;2023-06-05T08:01:42;19.40;59.30
43561;DHT22;32305;46.410;17.394;2023-06-05T08:04:10;19.50;59.60
43561;DHT22;32305;46.410;17.394;2023-06-05T08:06:38;19.50;58.90
43561;DHT22;32305;46.410;17.394;2023-06-05T08:09:09;19.50;58.20
43561;DHT22;32305;46.410;17.394;2023-06-05T08:11:37;19.50;59.40
43561;DHT22;32305;46.410;17.394;2023-06-05T08:14:08;19.50;59.10
43561;DHT22;32305;46.410;17.394;2023-06-05T08:16:36;19.60;58.50
43561;DHT22;32305;46.410;17.394;2023-06-05T08:19:03;19.50;58.80
43561;DHT22;32305;46.410;17.394;2023-06-05T08:21:30;19.60;58.70
43561;DHT22;32305;46.410;17.394;2023-06-05T08:23:58;19.60;58.60
43561;DHT22;32305;46.410;17.394;2023-06-05T08:26:25;19.60;58.40
43561;DHT22;32305;46.410;17.394;2023-06-05T08:28:53;19.60;59.00
43561;DHT22;32305;46.410;17.394;2023-06-05T08:31:21;19.70;59.10
43561;DHT22;32305;46.410;17.394;2023-06-05T08:33:48;19.70;59.30
43561;DHT22;32305;46.410;17.394;2023-06-05T08:36:15;19.80;59.70
43561;DHT22;32305;46.410;17.394;2023-06-05T08:38:43;19.90;59.80
43561;DHT22;32305;46.410;17.394;2023-06-05T08:41:13;19.90;59.20
43561;DHT22;32305;46.410;17.394;2023-06-05T08:43:43;20.00;59.50
43561;DHT22;32305;46.410;17.394;2023-06-05T08:46:14;20.00;58.90
43561;DHT22;32305;46.410;17.394;2023-06-05T08:48:44;20.00;58.40
43561;DHT22;32305;46.410;17.394;2023-06-05T08:51:17;20.10;58.50
43561;DHT22;32305;46.410;17.394;2023-06-05T08:53:57;20.00;58.60
43561;DHT22;32305;46.410;17.394;2023-06-05T08:56:30;20.10;58.70
43561;DHT22;32305;46.410;17.394;2023-06-05T08:58:59;20.10;58.70
43561;DHT22;32305;46.410;17.394;2023-06-05T09:01:27;20.20;58.60
43561;DHT22;32305;46.410;17.394;2023-06-05T09:03:57;20.20;58.60
43561;DHT22;32305;46.410;17.394;2023-06-05T09:06:24;20.30;58.10
43561;DHT22;32305;46.410;17.394;2023-06-05T09:08:51;20.30;58.60
43561;DHT22;32305;46.410;17.394;2023-06-05T09:11:25;20.20;58.40
43561;DHT22;32305;46.410;17.394;2023-06-05T09:13:58;20.30;58.00
43561;DHT22;32305;46.410;17.394;2023-06-05T09:16:35;20.30;58.20
43561;DHT22;32305;46.410;17.394;2023-06-05T09:19:03;20.30;58.20
43561;DHT22;32305;46.410;17.394;2023-06-05T09:21:31;20.30;58.00
43561;DHT22;32305;46.410;17.394;2023-06-05T09:24:17;20.30;58.10
43561;DHT22;32305;46.410;17.394;2023-06-05T09:27:00;20.30;58.60
43561;DHT22;32305;46.410;17.394;2023-06-05T09:29:35;20.30;58.50
43561;DHT22;32305;46.410;17.394;2023-06-05T09:32:09;20.30;58.50
43561;DHT22;32305;46.410;17.394;2023-06-05T09:34:38;20.30;59.00
43561;DHT22;32305;46.410;17.394;2023-06-05T09:37:08;20.40;58.60
43561;DHT22;32305;46.410;17.394;2023-06-05T09:39:37;20.50;57.70
43561;DHT22;32305;46.410;17.394;2023-06-05T09:42:06;20.40;57.30
43561;DHT22;32305;46.410;17.394;2023-06-05T09:44:34;20.30;57.60
43561;DHT22;32305;46.410;17.394;2023-06-05T09:47:04;20.20;57.30
43561;DHT22;32305;46.410;17.394;2023-06-05T09:49:46;20.20;57.80
43561;DHT22;32305;46.410;17.394;2023-06-05T09:52:16;20.20;58.00
43561;DHT22;32305;46.410;17.394;2023-06-05T09:54:45;20.20;58.10
43561;DHT22;32305;46.410;17.394;2023-06-05T09:57:14;20.30;58.30
43561;DHT22;32305;46.410;17.394;2023-06-05T09:59:50;20.30;58.10
43561;DHT22;32305;46.410;17.394;2023-06-05T10:02:20;20.30;58.50
43561;DHT22;32305;46.410;17.394;2023-06-05T10:04:55;20.30;58.60
43561;DHT22;32305;46.410;17.394;2023-06-05T10:07:24;20.40;58.00
43561;DHT22;32305;46.410;17.394;2023-06-05T10:09:52;20.40;57.80
43561;DHT22;32305;46.410;17.394;2023-06-05T10:12:20;20.30;57.80
43561;DHT22;32305;46.410;17.394;2023-06-05T10:14:50;20.30;57.60
43561;DHT22;32305;46.410;17.394;2023-06-05T10:17:18;20.40;57.80
43561;DHT22;32305;46.410;17.394;2023-06-05T10:19:47;20.40;57.90
43561;DHT22;32305;46.410;17.394;2023-06-05T10:22:17;20.40;57.50
43561;DHT22;32305;46.410;17.394;2023-06-05T10:24:48;20.50;58.10
43561;DHT22;32305;46.410;17.394;2023-06-05T10:27:50;20.50;58.10
43561;DHT22;32305;46.410;17.394;2023-06-05T10:30:54;20.40;57.50
43561;DHT22;32305;46.410;17.394;2023-06-05T10:37:12;20.60;57.30
43561;DHT22;32305;46.410;17.394;2023-06-05T10:39:41;20.50;57.10
43561;DHT22;32305;46.410;17.394;2023-06-05T10:42:08;20.50;58.40
43561;DHT22;32305;46.410;17.394;2023-06-05T10:44:41;20.60;57.70
43561;DHT22;32305;46.410;17.394;2023-06-05T10:50:20;20.50;57.80
43561;DHT22;32305;46.410;17.394;2023-06-05T10:52:49;20.50;58.40
43561;DHT22;32305;46.410;17.394;2023-06-05T10:55:17;20.50;58.30
43561;DHT22;32305;46.410;17.394;2023-06-05T10:58:05;20.50;57.90
43561;DHT22;32305;46.410;17.394;2023-06-05T11:00:35;20.50;58.50
43561;DHT22;32305;46.410;17.394;2023-06-05T11:03:04;20.50;58.80
43561;DHT22;32305;46.410;17.394;2023-06-05T11:05:36;20.40;58.40
43561;DHT22;32305;46.410;17.394;2023-06-05T11:08:15;20.40;58.70
43561;DHT22;32305;46.410;17.394;2023-06-05T11:11:03;20.30;58.90
43561;DHT22;32305;46.410;17.394;2023-06-05T11:13:54;20.30;59.30
43561;DHT22;32305;46.410;17.394;2023-06-05T11:16:31;20.40;58.90
43561;DHT22;32305;46.410;17.394;2023-06-05T11:22:05;20.40;58.80
43561;DHT22;32305;46.410;17.394;2023-06-05T11:24:35;20.50;59.20
43561;DHT22;32305;46.410;17.394;2023-06-05T11:27:05;20.50;59.80
43561;DHT22;32305;46.410;17.394;2023-06-05T11:29:33;20.50;59.00
43561;DHT22;32305;46.410;17.394;2023-06-05T11:32:00;20.50;59.10
43561;DHT22;32305;46.410;17.394;2023-06-05T11:34:38;20.60;59.50
43561;DHT22;32305;46.410;17.394;2023-06-05T11:37:16;20.60;59.50
43561;DHT22;32305;46.410;17.394;2023-06-05T11:39:48;20.60;59.60
43561;DHT22;32305;46.410;17.394;2023-06-05T11:42:22;20.60;59.70
43561;DHT22;32305;46.410;17.394;2023-06-05T11:44:50;20.60;59.40
43561;DHT22;32305;46.410;17.394;2023-06-05T11:47:25;20.60;60.00
43561;DHT22;32305;46.410;17.394;2023-06-05T11:49:52;20.50;60.30
43561;DHT22;32305;46.410;17.394;2023-06-05T11:52:20;20.50;60.70
43561;DHT22;32305;46.410;17.394;2023-06-05T11:54:49;20.50;60.30
43561;DHT22;32305;46.410;17.394;2023-06-05T11:57:41;20.50;60.30
43561;DHT22;32305;46.410;17.394;2023-06-05T12:00:23;20.50;60.40
43561;DHT22;32305;46.410;17.394;2023-06-05T12:02:50;20.50;60.10
43561;DHT22;32305;46.410;17.394;2023-06-05T12:05:18;20.50;60.10
43561;DHT22;32305;46.410;17.394;2023-06-05T12:07:46;20.50;59.80
43561;DHT22;32305;46.410;17.394;2023-06-05T12:10:15;20.60;59.50
43561;DHT22;32305;46.410;17.394;2023-06-05T12:12:55;20.50;59.40
43561;DHT22;32305;46.410;17.394;2023-06-05T12:15:22;20.50;59.60
43561;DHT22;32305;46.410;17.394;2023-06-05T12:17:52;20.50;59.60
43561;DHT22;32305;46.410;17.394;2023-06-05T12:20:20;20.50;59.50
43561;DHT22;32305;46.410;17.394;2023-06-05T12:22:48;20.50;59.70
43561;DHT22;32305;46.410;17.394;2023-06-05T12:25:22;20.60;59.80
43561;DHT22;32305;46.410;17.394;2023-06-05T12:27:49;20.50;59.60
43561;DHT22;32305;46.410;17.394;2023-06-05T12:30:17;20.50;59.70
43561;DHT22;32305;46.410;17.394;2023-06-05T12:32:44;20.60;59.70
43561;DHT22;32305;46.410;17.394;2023-06-05T12:35:22;20.60;59.60
43561;DHT22;32305;46.410;17.394;2023-06-05T12:37:50;20.60;59.40
43561;DHT22;32305;46.410;17.394;2023-06-05T12:40:18;20.60;60.30
43561;DHT22;32305;46.410;17.394;2023-06-05T12:43:02;20.70;59.90
43561;DHT22;32305;46.410;17.394;2023-06-05T12:45:29;20.60;59.50
43561;DHT22;32305;46.410;17.394;2023-06-05T12:47:58;20.60;59.50
43561;DHT22;32305;46.410;17.394;2023-06-05T12:50:25;20.60;59.80
43561;DHT22;32305;46.410;17.394;2023-06-05T12:52:53;20.60;59.60
43561;DHT22;32305;46.410;17.394;2023-06-05T12:55:20;20.60;59.90
43561;DHT22;32305;46.410;17.394;2023-06-05T12:57:48;20.50;59.60
43561;DHT22;32305;46.410;17.394;2023-06-05T13:00:16;20.50;59.80
43561;DHT22;32305;46.410;17.394;2023-06-05T13:02:45;20.50;59.80
43561;DHT22;32305;46.410;17.394;2023-06-05T13:05:14;20.50;59.90
43561;DHT22;32305;46.410;17.394;2023-06-05T13:07:42;20.40;59.70
43561;DHT22;32305;46.410;17.394;2023-06-05T13:10:09;20.40;60.30
43561;DHT22;32305;46.410;17.394;2023-06-05T13:12:40;20.40;60.40
43561;DHT22;32305;46.410;17.394;2023-06-05T13:15:10;20.40;59.70
43561;DHT22;32305;46.410;17.394;2023-06-05T13:17:37;20.40;59.90
43561;DHT22;32305;46.410;17.394;2023-06-05T13:20:05;20.40;60.30
43561;DHT22;32305;46.410;17.394;2023-06-05T13:22:38;20.40;60.10
43561;DHT22;32305;46.410;17.394;2023-06-05T13:25:07;20.40;60.40
43561;DHT22;32305;46.410;17.394;2023-06-05T13:27:35;20.50;60.10
43561;DHT22;32305;46.410;17.394;2023-06-05T13:30:03;20.40;59.70
43561;DHT22;32305;46.410;17.394;2023-06-05T13:32:36;20.40;59.80
43561;DHT22;32305;46.410;17.394;2023-06-05T13:35:09;20.40;60.10
43561;DHT22;32305;46.410;17.394;2023-06-05T13:37:37;20.40;60.10
43561;DHT22;32305;46.410;17.394;2023-06-05T13:40:05;20.40;59.80
43561;DHT22;32305;46.410;17.394;2023-06-05T13:42:34;20.40;59.90
43561;DHT22;32305;46.410;17.394;2023-06-05T13:45:01;20.40;59.80
43561;DHT22;32305;46.410;17.394;2023-06-05T13:47:29;20.40;60.00
43561;DHT22;32305;46.410;17.394;2023-06-05T13:49:56;20.30;60.00
43561;DHT22;32305;46.410;17.394;2023-06-05T13:52:24;20.30;60.90
43561;DHT22;32305;46.410;17.394;2023-06-05T13:54:52;20.30;60.30
43561;DHT22;32305;46.410;17.394;2023-06-05T13:57:19;20.30;59.90
43561;DHT22;32305;46.410;17.394;2023-06-05T13:59:46;20.30;59.80
43561;DHT22;32305;46.410;17.394;2023-06-05T14:02:14;20.20;60.40
43561;DHT22;32305;46.410;17.394;2023-06-05T14:04:41;20.30;66.60
43561;DHT22;32305;46.410;17.394;2023-06-05T14:07:08;20.60;69.80
43561;DHT22;32305;46.410;17.394;2023-06-05T14:09:36;21.00;70.80
43561;DHT22;32305;46.410;17.394;2023-06-05T14:12:04;21.40;70.90
43561;DHT22;32305;46.410;17.394;2023-06-05T14:14:31;21.80;70.80
43561;DHT22;32305;46.410;17.394;2023-06-05T14:16:58;22.20;70.90
43561;DHT22;32305;46.410;17.394;2023-06-05T14:19:26;22.40;70.40
43561;DHT22;32305;46.410;17.394;2023-06-05T14:21:53;22.70;70.00
43561;DHT22;32305;46.410;17.394;2023-06-05T14:24:21;23.00;69.40
43561;DHT22;32305;46.410;17.394;2023-06-05T14:26:48;23.30;69.50
43561;DHT22;32305;46.410;17.394;2023-06-05T14:29:16;23.50;69.30
43561;DHT22;32305;46.410;17.394;2023-06-05T14:31:44;23.70;69.10
43561;DHT22;32305;46.410;17.394;2023-06-05T14:34:11;23.80;68.80
43561;DHT22;32305;46.410;17.394;2023-06-05T14:36:38;23.90;68.50
43561;DHT22;32305;46.410;17.394;2023-06-05T14:39:06;24.10;68.50
43561;DHT22;32305;46.410;17.394;2023-06-05T14:41:33;24.20;68.30
43561;DHT22;32305;46.410;17.394;2023-06-05T14:44:01;24.30;68.10
43561;DHT22;32305;46.410;17.394;2023-06-05T14:46:47;24.40;67.60
43561;DHT22;32305;46.410;17.394;2023-06-05T14:49:14;24.50;67.10
43561;DHT22;32305;46.410;17.394;2023-06-05T14:51:41;24.60;66.80
43561;DHT22;32305;46.410;17.394;2023-06-05T14:54:09;24.70;66.60
43561;DHT22;32305;46.410;17.394;2023-06-05T14:56:36;24.80;66.40
43561;DHT22;32305;46.410;17.394;2023-06-05T14:59:04;24.80;66.20
43561;DHT22;32305;46.410;17.394;2023-06-05T15:01:51;24.90;66.00
43561;DHT22;32305;46.410;17.394;2023-06-05T15:04:19;24.90;65.90
43561;DHT22;32305;46.410;17.394;2023-06-05T15:06:46;25.00;65.60
43561;DHT22;32305;46.410;17.394;2023-06-05T15:09:13;25.00;65.40
43561;DHT22;32305;46.410;17.394;2023-06-05T15:11:41;25.10;65.30
43561;DHT22;32305;46.410;17.394;2023-06-05T15:14:08;25.10;65.10
43561;DHT22;32305;46.410;17.394;2023-06-05T15:16:35;25.10;64.90
43561;DHT22;32305;46.410;17.394;2023-06-05T15:19:08;25.10;64.70
43561;DHT22;32305;46.410;17.394;2023-06-05T15:21:36;25.20;64.30
43561;DHT22;32305;46.410;17.394;2023-06-05T15:24:03;25.20;64.20
43561;DHT22;32305;46.410;17.394;2023-06-05T15:26:31;25.20;63.80
43561;DHT22;32305;46.410;17.394;2023-06-05T15:28:58;25.30;63.60
43561;DHT22;32305;46.410;17.394;2023-06-05T15:31:25;25.30;63.30
43561;DHT22;32305;46.410;17.394;2023-06-05T15:33:52;25.30;62.90
43561;DHT22;32305;46.410;17.394;2023-06-05T15:36:20;25.40;62.50
43561;DHT22;32305;46.410;17.394;2023-06-05T15:38:47;25.30;62.10
43561;DHT22;32305;46.410;17.394;2023-06-05T15:41:14;25.40;61.80